View Sortable Currents For Network
ASOSAWOSCoCoRaHSCOOPDCPISUSM
SchoolNetOtherSCANMy FavoritesBy StateRWIS
RWIS SurfaceRWIS TrafficRWIS SoilBy NWS WFO
ADD: Station: Ob Time Temps °F     Wind [knots] Precip
Air (Hi / Lo) DewP Feels RH% Vis Speed Direction Gust @Time Accum [1]
Alton (IA10)06:00 PM 25.7(33.44/8.06) 17.6 20 71 0 4G7 220 21@ 01:00 PM 0
Cambridge I-3506:00 PM (/) 0 0 1.2 0 361 0@ 06:00 PM 0
New Hampton (US 18)06:00 PM 28.4(31.64/15.8) 21.02 18 74 2.6 10G12 205 34@ 12:30 AM 0
Ames (I-35)06:00 PM 37.58(41.36/22.1) 23.72 35 57 0.1 3G6 245 28@ 01:10 AM 0
Fort Dodge (US 20)06:00 PM 29.48(36.14/14.72) 20.48 23 69 0.4 6G8 225 28@ 12:01 AM 0
Bedford06:00 PM 39.38(44.24/22.1) 30.56 39 70 0.1 2G3 195 18@ 01:10 AM 0
Decorah (IA 9)06:00 PM 29.12(32.36/18.68) 22.64 19 76 1.6 10G14 225 33@ 12:40 AM 0
Rockwell City06:00 PM 27.86(33.8/12.38) 22.46 20 80 0 6G9 210 33@ 12:00 AM 0
Cantril06:00 PM 44.24(49.46/28.22) 16.16 41 32 0 4G6 0 25@ 12:20 AM 0
Tama06:00 PM 37.94(41.18/23.9) 31.28 34 77 5.3 4G6 255 36@ 02:00 AM 0
Sibley06:00 PM 21.56(27.32/6.08) 19.94 12 93 0 8G8 210 22@ 12:20 AM 0
Avoca (I-80)06:00 PM 35.78(40.64/19.4) 32.9 36 89 0.1 0G5 195 20@ 12:10 AM 0
Plainfield06:00 PM 30.92(33.8/16.34) 2.84 25 30 0 5G8 245 28@ 12:50 AM 0
Carroll (US 30)06:00 PM 32.72(36.68/17.06) 23.18 26 68 0 6G9 200 23@ 12:00 AM 0
Waterloo (US 20)06:00 PM 34.7(37.4/19.76) 31.46 28 88 0 6G11 300 31@ 02:10 AM 0
Williams (I-35)06:00 PM 30.2(33.44/15.26) 22.1 23 71 0 6G9 240 31@ 12:20 AM 0
Cedar Rapids (US 30)06:00 PM 39.38(45.5/25.52) 28.4 35 64 3.1 5G8 235 24@ 02:30 AM 0
Mason City (I-35)06:00 PM 34.88(37.58/25.52) 32.36 30 90 0.1 5G10 255 24@ 12:10 PM 0
Ida Grove (US 59)06:00 PM 33.8(37.04/14.54) 18.86 30 54 0 3G6 245 19@ 01:40 PM 0
Anamosa (US 151)06:00 PM 37.04(41.72/24.26) 24.08 30 59 1.2 9G12 260 37@ 03:30 AM 0
Tipton (I-80)06:00 PM 39.38(44.6/27.68) 24.8 34 56 1.3 7G11 275 30@ 12:20 AM 0
Cedar Rapids (I-380)06:00 PM 39.74(44.24/25.34) 23 36 51 0.4 5G10 170 30@ 02:50 AM 0
Colfax - I-8006:00 PM 40.46(44.78/24.62) 25.7 39 55 0 3G5 295 28@ 01:30 AM 0
Elkhart I-35 No106:00 PM (/) 0 0 1.2 0 361 0@ 06:00 PM 0
De Soto (I-80/US 169)06:00 PM 38.84(43.16/21.74) 25.34 39 58 0.3 2G5 240 25@ 01:50 AM 0
Moville06:00 PM 28.4(39.02/11.48) 19.4 21 69 0 6G8 255 14@ 02:50 AM 0
Council Bluffs (I-80)06:00 PM 41.18(43.16/22.46) -8.14 40 12 0 3G5 345 15@ 12:00 AM 0
Council Bluffs No206:00 PM 40.28(42.26/21.2) 28.22 40 62 0 1G4 175 30@ 01:00 AM 0
Centerville (IA 2)06:00 PM 41.54(47.48/25.34) 19.4 39 41 0 3G6 235 22@ 02:40 PM 0
Elkhart I-35 No206:00 PM (/) 0 0 1.2 0 361 0@ 06:00 PM 0
Sioux City Maintenance06:00 PM (/) 0 0 0 0 0@ 06:00 PM 0
Burlington (US 34)06:00 PM 47.3(50/30.56) 26.06 46 43 0 3G5 225 27@ 12:10 AM 0
Quad Cities06:00 PM 43.52(45.68/29.12) 19.76 39 38 0.8 7G14 250 34@ 12:10 AM 0
Williamsburg (I-80)06:00 PM 36.14(45.68/25.7) 24.44 36 62 0.1 2G4 295 26@ 03:50 AM 0
Davenport (I-80/I-280)06:00 PM 39.02(46.04/28.94) 25.52 33 58 0 8G12 270 36@ 12:40 AM 0
Estherville - Hwy 906:00 PM 25.52(29.48/12.2) 19.58 26 78 0 2G6 200 30@ 12:10 AM 0
Altoona (I-80/US 65)06:00 PM 39.38(43.7/23.54) 22.82 35 51 1.3 5G8 265 26@ 12:50 AM 0
Sigourney (IA 92)06:00 PM (/) 0 0 0 0 5 0@ 06:00 PM 0
Hanlontown (I-35)06:00 PM 24.8(31.64/11.84) 19.04 25 78 0.1 0 215 0@ 06:00 PM 0
Creston (US 34)06:00 PM 37.94(43.7/22.28) 28.58 33 69 0 5G5 235 23@ 12:30 PM 0
Iowa City (US 218)06:00 PM 39.74(43.88/27.5) 32.54 38 75 0 3G3 280 28@ 04:31 AM 0
Algona (US 18)06:00 PM 25.52(35.6/8.42) 21.2 26 83 0 0 361 26@ 12:20 AM 0
Adair (I-80)06:00 PM 35.6(40.46/20.66) 25.7 30 67 0 6G8 225 30@ 01:10 AM 0
Des Moines (I-235)06:00 PM 42.26(44.96/24.8) 25.88 42 52 0 0 361 0@ 06:00 PM 0
Leon (I-35)/IA 2)06:01 PM 40.64(47.66/22.64) 17.78 38 39 0.1 3G7 225 21@ 02:31 PM 0
Osceola (I-35)06:01 PM 40.28(46.22/24.62) 26.96 38 59 0 3G5 0 23@ 01:52 AM 0
Mount Pleasant (US 218)06:01 PM 43.7(50.36/29.12) 18.68 44 36 0 2G3 235 21@ 02:21 PM 0
Missouri Valley (I-29)06:01 PM 37.58(42.08/17.42) 24.8 38 60 0 0G2 115 16@ 12:11 AM 0
Spencer (US 18)06:01 PM (/) 0 0 1.2 9G12 230 28@ 02:01 AM 0
Jefferson (IA 4)06:01 PM 34.52(38.12/19.94) 23.18 30 63 3.2 4G5 225 23@ 09:21 AM 0
Urbana (I-380)06:01 PM 35.6(38.66/21.02) 25.88 30 67 0.1 5G9 260 33@ 04:02 AM 0
Red Oak (US 34/US 71)06:01 PM 37.94(43.52/21.38) 26.24 38 62 0 1G3 175 10@ 01:32 PM 0
Storm Lake (US 71/IA 3)06:01 PM 25.88(32/12.92) 18.14 17 72 0 7G8 230 30@ 12:01 AM 0
Sloan I-2906:01 PM 33.44(38.48/18.14) 22.28 29 63 0.1 4G6 215 17@ 12:11 AM 0
Maquoketa (US 61/IA 64)06:01 PM 37.58(43.16/26.42) 17.96 31 45 2.9 8G11 255 37@ 01:01 AM 0
Pella (IA 163)06:01 PM 39.38(45.14/25.88) 21.02 38 47 0 3G4 245 22@ 03:31 AM 0
Ottumwa (US 63)06:01 PM 44.96(49.46/28.04) 21.74 44 39 0.1 3G6 225 24@ 03:01 PM 0
Iowa City (I-80)06:01 PM (/) 0 0 0 0 361 0@ 06:00 PM 0
Manchester (US 20)06:01 PM 34.88(37.76/20.66) 25.52 28 68 0 8G11 270 30@ 12:21 AM 0
Denison06:02 PM 33.44(34.88/16.88) 21.02 33 60 0.1 0 225 14@ 01:52 PM 0
Ankeny (I-35)06:02 PM 39.38(41.9/22.64) 26.06 37 59 1.2 3G6 240 30@ 12:52 AM 0
Sidney (I-29/IA 2)06:02 PM 42.08(46.4/23.72) 25.16 37 51 0 6G9 200 15@ 03:02 PM 0
De Witt (US 30/US 61)06:03 PM 37.04(43.7/26.96) 28.04 31 70 0 7G10 250 30@ 12:33 AM 0
Marshalltown (US 30)06:03 PM 35.96(39.56/22.1) 23.72 32 61 0 4G5 250 31@ 01:33 AM 0
Des Moines (I-35)06:03 PM 40.1(43.88/23.18) 16.88 40 39 0 0 215 8@ 02:03 AM 0
Dubuque (US 20)06:04 PM 35.96(39.38/22.82) 29.48 36 77 0 2G6 255 39@ 02:34 AM 0
Steamboat Rock (US20)06:04 PM 32.72(35.42/17.42) 22.46 24 66 0 9G12 250 37@ 12:54 AM 0
Oskaloosa Hwy 9206:04 PM 40.2(45.2/25.1) 0 0 0 1G2 292 31@ 12:00 AM 0
Sigourney Hwy 14906:04 PM 28.3(41.7/25.6) 16.2 28 60 0 2G2 337 35@ 12:00 AM 0


Notes:
1 Not all sites have the ability to measure precip nor visibility.
2 The Iowa City (I-80) RWIS site does not have atmospheric sensors on it , so it is not included on this page.